Ben Arnold, Texas
Current Conditions -  °F | °C
As of 1:35 AM on Saturday 29 Nov 2014 (Local Time) from KT35 Reporting Station
Clear Clear  
Wind Chill: 13°   Ceiling: Unl
Heat Index: 13°   Visibility: 10mi
Dew Point: 12°   Wind: 7mph
Humidity: 89%   Direction: 190°S
Pressure: 30.05"   Gusts: NA
Location:  30.9882°N, 97.103°W
Report Text: KT35 290735Z AUTO 19006KT 10SM CLR 13/12 A3005 RMK AO2 T01330116
Loading
Personal Weather Stations






























Interactive Weather Map New forecast layout! Learn more

10-Day Weather Forecast

Advertisements
Track Severe Weather on mobile